sensor_id;sensor_type;location;lat;lon;timestamp;P1;durP1;ratioP1;P2;durP2;ratioP2
38785;SDS011;24535;45.508;12.252;2023-04-01T00:00:56;51.17;;;38.03;;
38785;SDS011;24535;45.508;12.252;2023-04-01T00:03:24;58.45;;;37.72;;
38785;SDS011;24535;45.508;12.252;2023-04-01T00:05:58;57.33;;;39.55;;
38785;SDS011;24535;45.508;12.252;2023-04-01T00:08:24;48.25;;;36.95;;
38785;SDS011;24535;45.508;12.252;2023-04-01T00:10:51;52.83;;;38.30;;
38785;SDS011;24535;45.508;12.252;2023-04-01T00:13:18;47.45;;;35.30;;
38785;SDS011;24535;45.508;12.252;2023-04-01T00:15:43;43.38;;;33.08;;
38785;SDS011;24535;45.508;12.252;2023-04-01T00:18:09;41.30;;;30.85;;
38785;SDS011;24535;45.508;12.252;2023-04-01T00:20:34;31.67;;;27.27;;
38785;SDS011;24535;45.508;12.252;2023-04-01T00:23:00;35.95;;;28.45;;
38785;SDS011;24535;45.508;12.252;2023-04-01T00:25:26;38.80;;;27.95;;
38785;SDS011;24535;45.508;12.252;2023-04-01T00:27:51;33.97;;;28.23;;
38785;SDS011;24535;45.508;12.252;2023-04-01T00:30:17;43.92;;;32.03;;
38785;SDS011;24535;45.508;12.252;2023-04-01T00:32:42;36.97;;;28.65;;
38785;SDS011;24535;45.508;12.252;2023-04-01T00:35:08;45.30;;;31.33;;
38785;SDS011;24535;45.508;12.252;2023-04-01T00:37:37;51.45;;;34.92;;
38785;SDS011;24535;45.508;12.252;2023-04-01T00:40:05;46.92;;;34.53;;
38785;SDS011;24535;45.508;12.252;2023-04-01T00:42:32;51.05;;;35.60;;
38785;SDS011;24535;45.508;12.252;2023-04-01T00:44:57;56.28;;;37.75;;
38785;SDS011;24535;45.508;12.252;2023-04-01T00:47:23;50.85;;;37.67;;
38785;SDS011;24535;45.508;12.252;2023-04-01T00:49:51;52.08;;;38.55;;
38785;SDS011;24535;45.508;12.252;2023-04-01T00:52:20;54.10;;;39.42;;
38785;SDS011;24535;45.508;12.252;2023-04-01T00:54:50;58.80;;;40.20;;
38785;SDS011;24535;45.508;12.252;2023-04-01T00:57:25;60.28;;;41.08;;
38785;SDS011;24535;45.508;12.252;2023-04-01T00:59:56;48.38;;;36.90;;
38785;SDS011;24535;45.508;12.252;2023-04-01T01:02:21;48.92;;;35.55;;
38785;SDS011;24535;45.508;12.252;2023-04-01T01:04:47;46.38;;;35.65;;
38785;SDS011;24535;45.508;12.252;2023-04-01T01:12:46;47.42;;;36.88;;
38785;SDS011;24535;45.508;12.252;2023-04-01T01:15:25;52.22;;;37.78;;
38785;SDS011;24535;45.508;12.252;2023-04-01T01:20:27;46.20;;;34.20;;
38785;SDS011;24535;45.508;12.252;2023-04-01T01:23:21;46.75;;;36.42;;
38785;SDS011;24535;45.508;12.252;2023-04-01T01:35:04;54.95;;;37.95;;
38785;SDS011;24535;45.508;12.252;2023-04-01T01:37:36;48.53;;;37.30;;
38785;SDS011;24535;45.508;12.252;2023-04-01T01:40:06;51.15;;;38.47;;
38785;SDS011;24535;45.508;12.252;2023-04-01T01:42:35;49.70;;;38.07;;
38785;SDS011;24535;45.508;12.252;2023-04-01T01:45:04;50.05;;;39.10;;
38785;SDS011;24535;45.508;12.252;2023-04-01T01:47:33;49.53;;;37.30;;
38785;SDS011;24535;45.508;12.252;2023-04-01T01:50:00;51.15;;;38.20;;
38785;SDS011;24535;45.508;12.252;2023-04-01T01:52:28;41.15;;;34.47;;
38785;SDS011;24535;45.508;12.252;2023-04-01T01:54:55;46.67;;;37.42;;
38785;SDS011;24535;45.508;12.252;2023-04-01T01:57:24;43.20;;;35.20;;
38785;SDS011;24535;45.508;12.252;2023-04-01T01:59:55;40.53;;;31.55;;
38785;SDS011;24535;45.508;12.252;2023-04-01T02:02:25;48.13;;;33.15;;
38785;SDS011;24535;45.508;12.252;2023-04-01T02:04:52;41.50;;;33.85;;
38785;SDS011;24535;45.508;12.252;2023-04-01T02:07:23;44.13;;;34.72;;
38785;SDS011;24535;45.508;12.252;2023-04-01T02:09:53;45.78;;;34.08;;
38785;SDS011;24535;45.508;12.252;2023-04-01T02:12:19;52.30;;;36.53;;
38785;SDS011;24535;45.508;12.252;2023-04-01T02:14:52;45.15;;;31.85;;
38785;SDS011;24535;45.508;12.252;2023-04-01T02:17:22;42.92;;;31.73;;
38785;SDS011;24535;45.508;12.252;2023-04-01T02:19:52;46.60;;;32.92;;
38785;SDS011;24535;45.508;12.252;2023-04-01T02:22:29;47.42;;;35.65;;
38785;SDS011;24535;45.508;12.252;2023-04-01T02:24:59;47.17;;;34.85;;
38785;SDS011;24535;45.508;12.252;2023-04-01T02:27:30;43.75;;;33.28;;
38785;SDS011;24535;45.508;12.252;2023-04-01T02:29:57;44.10;;;33.15;;
38785;SDS011;24535;45.508;12.252;2023-04-01T02:32:23;44.38;;;31.50;;
38785;SDS011;24535;45.508;12.252;2023-04-01T02:34:50;38.58;;;31.65;;
38785;SDS011;24535;45.508;12.252;2023-04-01T02:37:16;43.58;;;33.22;;
38785;SDS011;24535;45.508;12.252;2023-04-01T02:39:43;36.08;;;31.38;;
38785;SDS011;24535;45.508;12.252;2023-04-01T02:42:09;44.05;;;33.35;;
38785;SDS011;24535;45.508;12.252;2023-04-01T02:44:35;41.63;;;31.90;;
38785;SDS011;24535;45.508;12.252;2023-04-01T02:47:01;42.13;;;32.53;;
38785;SDS011;24535;45.508;12.252;2023-04-01T02:49:26;36.95;;;31.17;;
38785;SDS011;24535;45.508;12.252;2023-04-01T02:51:51;41.05;;;30.77;;
38785;SDS011;24535;45.508;12.252;2023-04-01T02:57:07;41.22;;;30.83;;
38785;SDS011;24535;45.508;12.252;2023-04-01T02:59:33;37.22;;;30.02;;
38785;SDS011;24535;45.508;12.252;2023-04-01T03:01:58;39.95;;;29.70;;
38785;SDS011;24535;45.508;12.252;2023-04-01T03:04:24;35.35;;;28.92;;
38785;SDS011;24535;45.508;12.252;2023-04-01T03:06:49;34.85;;;28.77;;
38785;SDS011;24535;45.508;12.252;2023-04-01T03:09:16;34.85;;;28.15;;
38785;SDS011;24535;45.508;12.252;2023-04-01T03:11:41;34.22;;;30.58;;
38785;SDS011;24535;45.508;12.252;2023-04-01T03:14:07;35.15;;;28.63;;
38785;SDS011;24535;45.508;12.252;2023-04-01T03:16:32;34.95;;;29.48;;
38785;SDS011;24535;45.508;12.252;2023-04-01T03:18:58;33.95;;;27.88;;
38785;SDS011;24535;45.508;12.252;2023-04-01T03:21:25;38.40;;;30.30;;
38785;SDS011;24535;45.508;12.252;2023-04-01T03:23:50;38.22;;;30.27;;
38785;SDS011;24535;45.508;12.252;2023-04-01T03:26:16;33.63;;;27.02;;
38785;SDS011;24535;45.508;12.252;2023-04-01T03:28:43;38.40;;;28.77;;
38785;SDS011;24535;45.508;12.252;2023-04-01T03:31:08;32.28;;;28.13;;
38785;SDS011;24535;45.508;12.252;2023-04-01T03:33:34;29.20;;;25.75;;
38785;SDS011;24535;45.508;12.252;2023-04-01T03:35:59;31.08;;;25.67;;
38785;SDS011;24535;45.508;12.252;2023-04-01T03:38:25;35.33;;;28.35;;
38785;SDS011;24535;45.508;12.252;2023-04-01T03:40:51;37.50;;;31.13;;
38785;SDS011;24535;45.508;12.252;2023-04-01T03:43:16;40.78;;;32.28;;
38785;SDS011;24535;45.508;12.252;2023-04-01T03:45:45;39.53;;;32.65;;
38785;SDS011;24535;45.508;12.252;2023-04-01T03:48:12;37.10;;;30.70;;
38785;SDS011;24535;45.508;12.252;2023-04-01T03:50:38;39.85;;;31.70;;
38785;SDS011;24535;45.508;12.252;2023-04-01T03:53:03;40.50;;;30.20;;
38785;SDS011;24535;45.508;12.252;2023-04-01T03:55:29;38.53;;;29.38;;
38785;SDS011;24535;45.508;12.252;2023-04-01T03:57:55;33.05;;;28.05;;
38785;SDS011;24535;45.508;12.252;2023-04-01T04:00:20;32.55;;;27.88;;
38785;SDS011;24535;45.508;12.252;2023-04-01T04:02:46;31.23;;;26.70;;
38785;SDS011;24535;45.508;12.252;2023-04-01T04:05:11;30.38;;;26.50;;
38785;SDS011;24535;45.508;12.252;2023-04-01T04:07:38;32.40;;;27.38;;
38785;SDS011;24535;45.508;12.252;2023-04-01T04:10:04;32.63;;;28.52;;
38785;SDS011;24535;45.508;12.252;2023-04-01T04:12:30;38.00;;;28.50;;
38785;SDS011;24535;45.508;12.252;2023-04-01T04:14:55;36.33;;;28.48;;
38785;SDS011;24535;45.508;12.252;2023-04-01T04:17:21;36.22;;;28.27;;
38785;SDS011;24535;45.508;12.252;2023-04-01T04:19:47;32.40;;;26.13;;
38785;SDS011;24535;45.508;12.252;2023-04-01T04:22:12;29.58;;;25.92;;
38785;SDS011;24535;45.508;12.252;2023-04-01T04:24:37;35.63;;;28.48;;
38785;SDS011;24535;45.508;12.252;2023-04-01T04:27:03;35.30;;;26.48;;
38785;SDS011;24535;45.508;12.252;2023-04-01T04:29:29;29.80;;;26.23;;
38785;SDS011;24535;45.508;12.252;2023-04-01T04:31:54;37.95;;;27.60;;
38785;SDS011;24535;45.508;12.252;2023-04-01T04:34:20;31.25;;;25.42;;
38785;SDS011;24535;45.508;12.252;2023-04-01T04:36:47;34.47;;;28.83;;
38785;SDS011;24535;45.508;12.252;2023-04-01T04:39:13;37.05;;;29.27;;
38785;SDS011;24535;45.508;12.252;2023-04-01T04:41:38;32.83;;;28.67;;
38785;SDS011;24535;45.508;12.252;2023-04-01T04:44:05;30.33;;;26.23;;
38785;SDS011;24535;45.508;12.252;2023-04-01T04:46:30;33.88;;;25.73;;
38785;SDS011;24535;45.508;12.252;2023-04-01T04:48:56;32.10;;;28.50;;
38785;SDS011;24535;45.508;12.252;2023-04-01T04:51:22;31.55;;;26.38;;
38785;SDS011;24535;45.508;12.252;2023-04-01T04:53:48;31.42;;;25.60;;
38785;SDS011;24535;45.508;12.252;2023-04-01T04:56:17;33.10;;;24.30;;
38785;SDS011;24535;45.508;12.252;2023-04-01T04:58:45;34.40;;;26.13;;
38785;SDS011;24535;45.508;12.252;2023-04-01T05:01:12;29.60;;;25.60;;
38785;SDS011;24535;45.508;12.252;2023-04-01T05:03:39;27.77;;;23.90;;
38785;SDS011;24535;45.508;12.252;2023-04-01T05:06:05;36.15;;;28.58;;
38785;SDS011;24535;45.508;12.252;2023-04-01T05:08:33;28.50;;;25.13;;
38785;SDS011;24535;45.508;12.252;2023-04-01T05:10:59;32.05;;;27.15;;
38785;SDS011;24535;45.508;12.252;2023-04-01T05:13:25;35.67;;;29.42;;
38785;SDS011;24535;45.508;12.252;2023-04-01T05:15:50;37.50;;;29.25;;
38785;SDS011;24535;45.508;12.252;2023-04-01T05:18:16;35.40;;;28.60;;
38785;SDS011;24535;45.508;12.252;2023-04-01T05:20:51;34.00;;;27.15;;
38785;SDS011;24535;45.508;12.252;2023-04-01T05:23:19;28.17;;;24.48;;
38785;SDS011;24535;45.508;12.252;2023-04-01T05:25:46;29.02;;;24.45;;
38785;SDS011;24535;45.508;12.252;2023-04-01T05:28:12;25.83;;;21.85;;
38785;SDS011;24535;45.508;12.252;2023-04-01T05:30:40;26.23;;;23.25;;
38785;SDS011;24535;45.508;12.252;2023-04-01T05:33:06;26.05;;;21.52;;
38785;SDS011;24535;45.508;12.252;2023-04-01T05:35:32;26.95;;;23.85;;
38785;SDS011;24535;45.508;12.252;2023-04-01T05:37:58;29.48;;;24.50;;
38785;SDS011;24535;45.508;12.252;2023-04-01T05:40:23;30.52;;;25.20;;
38785;SDS011;24535;45.508;12.252;2023-04-01T05:42:49;31.38;;;27.83;;
38785;SDS011;24535;45.508;12.252;2023-04-01T05:45:14;36.53;;;28.13;;
38785;SDS011;24535;45.508;12.252;2023-04-01T05:47:40;33.03;;;26.85;;
38785;SDS011;24535;45.508;12.252;2023-04-01T05:50:07;32.92;;;25.65;;
38785;SDS011;24535;45.508;12.252;2023-04-01T05:52:36;26.88;;;23.42;;
38785;SDS011;24535;45.508;12.252;2023-04-01T05:55:02;26.77;;;23.83;;
38785;SDS011;24535;45.508;12.252;2023-04-01T05:57:28;27.38;;;24.40;;
38785;SDS011;24535;45.508;12.252;2023-04-01T05:59:53;26.95;;;21.95;;
38785;SDS011;24535;45.508;12.252;2023-04-01T06:02:18;26.73;;;21.45;;
38785;SDS011;24535;45.508;12.252;2023-04-01T06:04:44;29.35;;;21.73;;
38785;SDS011;24535;45.508;12.252;2023-04-01T06:07:11;26.90;;;21.63;;
38785;SDS011;24535;45.508;12.252;2023-04-01T06:09:40;29.48;;;22.95;;
38785;SDS011;24535;45.508;12.252;2023-04-01T06:14:48;24.45;;;20.95;;
38785;SDS011;24535;45.508;12.252;2023-04-01T06:17:48;27.15;;;21.40;;
38785;SDS011;24535;45.508;12.252;2023-04-01T06:20:24;29.05;;;23.05;;
38785;SDS011;24535;45.508;12.252;2023-04-01T06:34:12;28.42;;;20.23;;
38785;SDS011;24535;45.508;12.252;2023-04-01T06:39:36;24.73;;;18.38;;
38785;SDS011;24535;45.508;12.252;2023-04-01T06:42:38;18.10;;;15.00;;
38785;SDS011;24535;45.508;12.252;2023-04-01T06:48:31;20.58;;;16.30;;
38785;SDS011;24535;45.508;12.252;2023-04-01T06:51:31;15.90;;;13.90;;
38785;SDS011;24535;45.508;12.252;2023-04-01T06:54:17;19.52;;;14.35;;
38785;SDS011;24535;45.508;12.252;2023-04-01T06:57:00;17.83;;;13.02;;
38785;SDS011;24535;45.508;12.252;2023-04-01T06:59:33;16.98;;;12.85;;
38785;SDS011;24535;45.508;12.252;2023-04-01T07:04:46;14.32;;;10.07;;
38785;SDS011;24535;45.508;12.252;2023-04-01T07:07:19;9.93;;;7.65;;
38785;SDS011;24535;45.508;12.252;2023-04-01T07:10:20;8.73;;;6.85;;
38785;SDS011;24535;45.508;12.252;2023-04-01T07:12:56;8.73;;;7.45;;
38785;SDS011;24535;45.508;12.252;2023-04-01T07:15:30;10.20;;;7.72;;
38785;SDS011;24535;45.508;12.252;2023-04-01T07:20:41;11.60;;;6.68;;
38785;SDS011;24535;45.508;12.252;2023-04-01T07:23:10;7.20;;;5.68;;
38785;SDS011;24535;45.508;12.252;2023-04-01T07:25:46;7.47;;;5.77;;
38785;SDS011;24535;45.508;12.252;2023-04-01T07:28:16;6.18;;;4.47;;
38785;SDS011;24535;45.508;12.252;2023-04-01T07:39:08;5.93;;;4.05;;
38785;SDS011;24535;45.508;12.252;2023-04-01T07:52:10;5.63;;;3.88;;
38785;SDS011;24535;45.508;12.252;2023-04-01T07:55:10;4.45;;;3.20;;
38785;SDS011;24535;45.508;12.252;2023-04-01T07:58:09;4.85;;;3.17;;
38785;SDS011;24535;45.508;12.252;2023-04-01T08:06:29;4.55;;;2.65;;
38785;SDS011;24535;45.508;12.252;2023-04-01T08:09:19;2.45;;;2.15;;
38785;SDS011;24535;45.508;12.252;2023-04-01T08:14:54;5.60;;;2.90;;
38785;SDS011;24535;45.508;12.252;2023-04-01T08:20:42;3.53;;;2.53;;
38785;SDS011;24535;45.508;12.252;2023-04-01T08:23:19;3.17;;;2.55;;
38785;SDS011;24535;45.508;12.252;2023-04-01T08:33:31;2.72;;;1.90;;
38785;SDS011;24535;45.508;12.252;2023-04-01T08:38:59;3.45;;;1.77;;
38785;SDS011;24535;45.508;12.252;2023-04-01T08:48:19;2.72;;;1.58;;
38785;SDS011;24535;45.508;12.252;2023-04-01T08:53:13;4.50;;;1.80;;
38785;SDS011;24535;45.508;12.252;2023-04-01T09:01:21;2.05;;;1.75;;
38785;SDS011;24535;45.508;12.252;2023-04-01T09:31:38;2.50;;;1.92;;
38785;SDS011;24535;45.508;12.252;2023-04-01T09:44:54;3.60;;;2.45;;
38785;SDS011;24535;45.508;12.252;2023-04-01T09:47:43;2.58;;;2.10;;
38785;SDS011;24535;45.508;12.252;2023-04-01T09:58:40;3.72;;;1.70;;
38785;SDS011;24535;45.508;12.252;2023-04-01T10:34:47;3.78;;;2.92;;
38785;SDS011;24535;45.508;12.252;2023-04-01T10:40:50;4.50;;;2.78;;
38785;SDS011;24535;45.508;12.252;2023-04-01T10:46:21;2.40;;;1.60;;
38785;SDS011;24535;45.508;12.252;2023-04-01T11:01:13;4.53;;;2.78;;
38785;SDS011;24535;45.508;12.252;2023-04-01T11:06:30;6.15;;;3.53;;
38785;SDS011;24535;45.508;12.252;2023-04-01T11:37:59;6.35;;;3.92;;
38785;SDS011;24535;45.508;12.252;2023-04-01T11:48:47;6.18;;;5.03;;
38785;SDS011;24535;45.508;12.252;2023-04-01T11:54:40;9.50;;;4.30;;
38785;SDS011;24535;45.508;12.252;2023-04-01T12:13:37;10.50;;;6.85;;
38785;SDS011;24535;45.508;12.252;2023-04-01T12:16:28;8.18;;;6.25;;
38785;SDS011;24535;45.508;12.252;2023-04-01T12:24:50;11.35;;;5.40;;
38785;SDS011;24535;45.508;12.252;2023-04-01T12:30:10;7.88;;;6.53;;
38785;SDS011;24535;45.508;12.252;2023-04-01T12:32:52;8.15;;;5.65;;
38785;SDS011;24535;45.508;12.252;2023-04-01T12:41:07;10.38;;;6.47;;
38785;SDS011;24535;45.508;12.252;2023-04-01T13:19:21;6.55;;;4.88;;
38785;SDS011;24535;45.508;12.252;2023-04-01T13:21:58;6.82;;;5.00;;
38785;SDS011;24535;45.508;12.252;2023-04-01T13:25:42;9.15;;;6.60;;
38785;SDS011;24535;45.508;12.252;2023-04-01T13:27:45;9.32;;;6.07;;
38785;SDS011;24535;45.508;12.252;2023-04-01T13:44:28;8.68;;;5.82;;
38785;SDS011;24535;45.508;12.252;2023-04-01T14:01:23;8.70;;;6.68;;
38785;SDS011;24535;45.508;12.252;2023-04-01T14:04:29;10.05;;;5.72;;
38785;SDS011;24535;45.508;12.252;2023-04-01T14:07:10;11.70;;;5.57;;
38785;SDS011;24535;45.508;12.252;2023-04-01T14:12:36;9.20;;;5.07;;
38785;SDS011;24535;45.508;12.252;2023-04-01T14:17:52;6.75;;;4.63;;
38785;SDS011;24535;45.508;12.252;2023-04-01T14:20:39;8.48;;;5.57;;
38785;SDS011;24535;45.508;12.252;2023-04-01T14:23:27;5.95;;;4.28;;
38785;SDS011;24535;45.508;12.252;2023-04-01T14:29:00;10.82;;;5.13;;
38785;SDS011;24535;45.508;12.252;2023-04-01T14:31:42;5.22;;;3.90;;
38785;SDS011;24535;45.508;12.252;2023-04-01T14:39:48;6.10;;;3.60;;
38785;SDS011;24535;45.508;12.252;2023-04-01T14:50:27;6.50;;;4.22;;
38785;SDS011;24535;45.508;12.252;2023-04-01T14:55:33;7.28;;;4.25;;
38785;SDS011;24535;45.508;12.252;2023-04-01T14:58:12;5.57;;;4.27;;
38785;SDS011;24535;45.508;12.252;2023-04-01T15:03:09;5.30;;;3.95;;
38785;SDS011;24535;45.508;12.252;2023-04-01T15:05:49;7.13;;;4.28;;
38785;SDS011;24535;45.508;12.252;2023-04-01T15:13:55;5.88;;;3.65;;
38785;SDS011;24535;45.508;12.252;2023-04-01T15:16:30;7.20;;;4.32;;
38785;SDS011;24535;45.508;12.252;2023-04-01T15:24:06;5.45;;;3.35;;
38785;SDS011;24535;45.508;12.252;2023-04-01T15:26:47;7.40;;;4.82;;
38785;SDS011;24535;45.508;12.252;2023-04-01T15:35:15;5.00;;;4.10;;
38785;SDS011;24535;45.508;12.252;2023-04-01T15:40:37;7.72;;;5.15;;
38785;SDS011;24535;45.508;12.252;2023-04-01T15:46:09;5.70;;;4.22;;
38785;SDS011;24535;45.508;12.252;2023-04-01T15:51:30;8.98;;;4.95;;
38785;SDS011;24535;45.508;12.252;2023-04-01T15:54:32;6.40;;;3.38;;
38785;SDS011;24535;45.508;12.252;2023-04-01T15:57:05;7.30;;;5.47;;
38785;SDS011;24535;45.508;12.252;2023-04-01T16:08:14;12.32;;;4.88;;
38785;SDS011;24535;45.508;12.252;2023-04-01T16:10:58;6.95;;;3.80;;
38785;SDS011;24535;45.508;12.252;2023-04-01T16:31:03;5.55;;;4.55;;
38785;SDS011;24535;45.508;12.252;2023-04-01T16:33:52;7.43;;;4.03;;
38785;SDS011;24535;45.508;12.252;2023-04-01T16:41:47;7.15;;;5.53;;
38785;SDS011;24535;45.508;12.252;2023-04-01T16:44:21;10.18;;;5.90;;
38785;SDS011;24535;45.508;12.252;2023-04-01T16:49:39;9.65;;;6.38;;
38785;SDS011;24535;45.508;12.252;2023-04-01T16:54:44;15.32;;;6.93;;
38785;SDS011;24535;45.508;12.252;2023-04-01T17:00:29;9.88;;;6.65;;
38785;SDS011;24535;45.508;12.252;2023-04-01T17:03:11;11.13;;;6.68;;
38785;SDS011;24535;45.508;12.252;2023-04-01T17:05:49;9.93;;;6.57;;
38785;SDS011;24535;45.508;12.252;2023-04-01T17:11:21;8.43;;;6.68;;
38785;SDS011;24535;45.508;12.252;2023-04-01T17:14:03;10.02;;;7.22;;
38785;SDS011;24535;45.508;12.252;2023-04-01T17:29:04;11.23;;;7.85;;
38785;SDS011;24535;45.508;12.252;2023-04-01T17:31:21;11.80;;;8.52;;
38785;SDS011;24535;45.508;12.252;2023-04-01T17:39:46;11.90;;;9.05;;
38785;SDS011;24535;45.508;12.252;2023-04-01T17:42:37;11.93;;;8.95;;
38785;SDS011;24535;45.508;12.252;2023-04-01T17:53:41;18.88;;;11.85;;
38785;SDS011;24535;45.508;12.252;2023-04-01T17:59:21;22.05;;;14.73;;
38785;SDS011;24535;45.508;12.252;2023-04-01T18:10:41;23.50;;;15.88;;
38785;SDS011;24535;45.508;12.252;2023-04-01T18:13:40;31.40;;;17.90;;
38785;SDS011;24535;45.508;12.252;2023-04-01T18:28:39;47.60;;;32.30;;
38785;SDS011;24535;45.508;12.252;2023-04-01T18:33:34;57.33;;;39.57;;
38785;SDS011;24535;45.508;12.252;2023-04-01T18:36:43;57.97;;;39.63;;
38785;SDS011;24535;45.508;12.252;2023-04-01T18:42:00;54.63;;;37.22;;
38785;SDS011;24535;45.508;12.252;2023-04-01T18:47:25;59.90;;;37.92;;
38785;SDS011;24535;45.508;12.252;2023-04-01T18:56:03;62.45;;;40.42;;
38785;SDS011;24535;45.508;12.252;2023-04-01T18:58:48;59.15;;;40.17;;
38785;SDS011;24535;45.508;12.252;2023-04-01T19:06:57;60.20;;;40.88;;
38785;SDS011;24535;45.508;12.252;2023-04-01T19:09:47;62.60;;;44.58;;
38785;SDS011;24535;45.508;12.252;2023-04-01T19:12:27;68.65;;;45.00;;
38785;SDS011;24535;45.508;12.252;2023-04-01T19:15:29;58.40;;;41.78;;
38785;SDS011;24535;45.508;12.252;2023-04-01T19:20:51;54.33;;;39.17;;
38785;SDS011;24535;45.508;12.252;2023-04-01T19:23:39;58.22;;;38.95;;
38785;SDS011;24535;45.508;12.252;2023-04-01T19:29:18;66.90;;;45.00;;
38785;SDS011;24535;45.508;12.252;2023-04-01T19:32:08;55.47;;;39.22;;
38785;SDS011;24535;45.508;12.252;2023-04-01T19:40:57;59.92;;;41.25;;
38785;SDS011;24535;45.508;12.252;2023-04-01T19:51:37;58.35;;;42.47;;
38785;SDS011;24535;45.508;12.252;2023-04-01T20:04:53;57.35;;;38.50;;
38785;SDS011;24535;45.508;12.252;2023-04-01T20:07:26;48.13;;;37.03;;
38785;SDS011;24535;45.508;12.252;2023-04-01T20:15:39;58.72;;;39.47;;
38785;SDS011;24535;45.508;12.252;2023-04-01T20:18:25;61.63;;;41.83;;
38785;SDS011;24535;45.508;12.252;2023-04-01T20:20:59;61.50;;;43.83;;
38785;SDS011;24535;45.508;12.252;2023-04-01T20:24:32;60.10;;;43.65;;
38785;SDS011;24535;45.508;12.252;2023-04-01T20:27:03;64.82;;;43.03;;
38785;SDS011;24535;45.508;12.252;2023-04-01T20:40:51;43.28;;;32.60;;
38785;SDS011;24535;45.508;12.252;2023-04-01T20:43:33;50.78;;;36.22;;
38785;SDS011;24535;45.508;12.252;2023-04-01T20:46:22;48.75;;;35.05;;
38785;SDS011;24535;45.508;12.252;2023-04-01T20:51:38;54.95;;;38.40;;
38785;SDS011;24535;45.508;12.252;2023-04-01T20:54:18;54.28;;;38.53;;
38785;SDS011;24535;45.508;12.252;2023-04-01T20:56:50;66.50;;;46.65;;
38785;SDS011;24535;45.508;12.252;2023-04-01T21:05:04;66.90;;;43.35;;
38785;SDS011;24535;45.508;12.252;2023-04-01T21:18:49;81.18;;;51.63;;
38785;SDS011;24535;45.508;12.252;2023-04-01T21:54:41;54.90;;;40.55;;
38785;SDS011;24535;45.508;12.252;2023-04-01T21:57:29;55.58;;;39.35;;
38785;SDS011;24535;45.508;12.252;2023-04-01T22:00:09;57.23;;;39.73;;
38785;SDS011;24535;45.508;12.252;2023-04-01T22:05:31;52.13;;;36.88;;
38785;SDS011;24535;45.508;12.252;2023-04-01T22:13:50;52.85;;;40.50;;
38785;SDS011;24535;45.508;12.252;2023-04-01T22:24:49;49.53;;;36.10;;
38785;SDS011;24535;45.508;12.252;2023-04-01T22:32:32;49.47;;;37.47;;
38785;SDS011;24535;45.508;12.252;2023-04-01T22:35:16;56.33;;;37.88;;
38785;SDS011;24535;45.508;12.252;2023-04-01T22:43:16;53.60;;;36.53;;
38785;SDS011;24535;45.508;12.252;2023-04-01T22:48:41;50.40;;;35.90;;
38785;SDS011;24535;45.508;12.252;2023-04-01T22:53:50;46.97;;;32.72;;
38785;SDS011;24535;45.508;12.252;2023-04-01T22:56:38;46.95;;;32.17;;
38785;SDS011;24535;45.508;12.252;2023-04-01T22:59:17;42.97;;;33.70;;
38785;SDS011;24535;45.508;12.252;2023-04-01T23:02:08;47.28;;;35.35;;
38785;SDS011;24535;45.508;12.252;2023-04-01T23:04:39;44.70;;;33.53;;
38785;SDS011;24535;45.508;12.252;2023-04-01T23:09:58;46.50;;;32.80;;
38785;SDS011;24535;45.508;12.252;2023-04-01T23:12:26;49.00;;;34.42;;
38785;SDS011;24535;45.508;12.252;2023-04-01T23:14:56;46.55;;;35.38;;
38785;SDS011;24535;45.508;12.252;2023-04-01T23:20:02;53.97;;;37.45;;
38785;SDS011;24535;45.508;12.252;2023-04-01T23:26:07;52.40;;;35.45;;
38785;SDS011;24535;45.508;12.252;2023-04-01T23:28:43;45.45;;;32.70;;
38785;SDS011;24535;45.508;12.252;2023-04-01T23:33:54;50.28;;;33.95;;
38785;SDS011;24535;45.508;12.252;2023-04-01T23:36:21;44.30;;;34.17;;
38785;SDS011;24535;45.508;12.252;2023-04-01T23:38:48;50.10;;;37.03;;
38785;SDS011;24535;45.508;12.252;2023-04-01T23:41:48;45.92;;;34.58;;
38785;SDS011;24535;45.508;12.252;2023-04-01T23:44:10;47.58;;;32.15;;
38785;SDS011;24535;45.508;12.252;2023-04-01T23:46:38;45.22;;;35.10;;
38785;SDS011;24535;45.508;12.252;2023-04-01T23:49:12;45.83;;;32.10;;
38785;SDS011;24535;45.508;12.252;2023-04-01T23:51:52;47.90;;;33.33;;
38785;SDS011;24535;45.508;12.252;2023-04-01T23:54:29;52.80;;;35.08;;
38785;SDS011;24535;45.508;12.252;2023-04-01T23:56:57;55.65;;;36.35;;
